sensor_id;sensor_type;location;lat;lon;timestamp;P1;durP1;ratioP1;P2;durP2;ratioP2
5702;SDS011;2876;51.738;10.050;2023-02-15T00:02:32;22.50;;;13.50;;
5702;SDS011;2876;51.738;10.050;2023-02-15T00:08:34;23.80;;;14.47;;
5702;SDS011;2876;51.738;10.050;2023-02-15T00:14:36;27.63;;;14.97;;
5702;SDS011;2876;51.738;10.050;2023-02-15T00:20:38;32.87;;;16.43;;
5702;SDS011;2876;51.738;10.050;2023-02-15T00:26:40;23.10;;;15.00;;
5702;SDS011;2876;51.738;10.050;2023-02-15T00:32:43;24.80;;;13.97;;
5702;SDS011;2876;51.738;10.050;2023-02-15T00:38:45;23.43;;;14.40;;
5702;SDS011;2876;51.738;10.050;2023-02-15T00:44:47;22.80;;;13.97;;
5702;SDS011;2876;51.738;10.050;2023-02-15T00:50:49;26.17;;;15.53;;
5702;SDS011;2876;51.738;10.050;2023-02-15T00:56:54;22.00;;;13.27;;
5702;SDS011;2876;51.738;10.050;2023-02-15T01:02:56;29.00;;;13.57;;
5702;SDS011;2876;51.738;10.050;2023-02-15T01:08:58;27.80;;;14.57;;
5702;SDS011;2876;51.738;10.050;2023-02-15T01:15:00;19.50;;;13.10;;
5702;SDS011;2876;51.738;10.050;2023-02-15T01:21:12;27.90;;;14.87;;
5702;SDS011;2876;51.738;10.050;2023-02-15T01:27:22;23.30;;;13.30;;
5702;SDS011;2876;51.738;10.050;2023-02-15T01:33:24;30.60;;;16.10;;
5702;SDS011;2876;51.738;10.050;2023-02-15T01:39:26;78.13;;;15.90;;
5702;SDS011;2876;51.738;10.050;2023-02-15T01:45:30;80.37;;;16.40;;
5702;SDS011;2876;51.738;10.050;2023-02-15T01:51:33;29.57;;;16.23;;
5702;SDS011;2876;51.738;10.050;2023-02-15T01:57:37;326.83;;;25.43;;
5702;SDS011;2876;51.738;10.050;2023-02-15T02:09:54;176.00;;;24.47;;
5702;SDS011;2876;51.738;10.050;2023-02-15T02:48:13;83.30;;;20.83;;
5702;SDS011;2876;51.738;10.050;2023-02-15T02:54:19;76.63;;;22.70;;
5702;SDS011;2876;51.738;10.050;2023-02-15T03:00:22;97.10;;;13.63;;
5702;SDS011;2876;51.738;10.050;2023-02-15T03:06:47;73.70;;;16.13;;
5702;SDS011;2876;51.738;10.050;2023-02-15T03:12:58;45.10;;;13.67;;
5702;SDS011;2876;51.738;10.050;2023-02-15T03:19:12;114.33;;;18.20;;
5702;SDS011;2876;51.738;10.050;2023-02-15T03:25:48;52.30;;;15.73;;
5702;SDS011;2876;51.738;10.050;2023-02-15T03:31:57;105.63;;;15.90;;
5702;SDS011;2876;51.738;10.050;2023-02-15T03:38:04;64.23;;;14.80;;
5702;SDS011;2876;51.738;10.050;2023-02-15T03:44:22;51.07;;;12.13;;
5702;SDS011;2876;51.738;10.050;2023-02-15T03:50:32;42.00;;;12.23;;
5702;SDS011;2876;51.738;10.050;2023-02-15T03:56:57;32.97;;;12.60;;
5702;SDS011;2876;51.738;10.050;2023-02-15T04:09:29;42.90;;;13.97;;
5702;SDS011;2876;51.738;10.050;2023-02-15T04:15:49;98.53;;;19.70;;
5702;SDS011;2876;51.738;10.050;2023-02-15T04:22:08;54.53;;;15.10;;
5702;SDS011;2876;51.738;10.050;2023-02-15T04:28:28;53.40;;;13.90;;
5702;SDS011;2876;51.738;10.050;2023-02-15T04:34:30;110.47;;;16.87;;
5702;SDS011;2876;51.738;10.050;2023-02-15T04:40:32;105.37;;;19.03;;
5702;SDS011;2876;51.738;10.050;2023-02-15T04:46:34;141.23;;;16.03;;
5702;SDS011;2876;51.738;10.050;2023-02-15T04:52:36;66.37;;;17.63;;
5702;SDS011;2876;51.738;10.050;2023-02-15T04:58:38;86.83;;;13.70;;
5702;SDS011;2876;51.738;10.050;2023-02-15T05:04:43;62.27;;;14.67;;
5702;SDS011;2876;51.738;10.050;2023-02-15T05:10:47;116.37;;;22.30;;
5702;SDS011;2876;51.738;10.050;2023-02-15T05:16:50;48.27;;;12.20;;
5702;SDS011;2876;51.738;10.050;2023-02-15T05:22:55;35.10;;;11.87;;
5702;SDS011;2876;51.738;10.050;2023-02-15T05:28:57;182.10;;;17.80;;
5702;SDS011;2876;51.738;10.050;2023-02-15T05:34:59;249.07;;;20.60;;
5702;SDS011;2876;51.738;10.050;2023-02-15T05:41:01;70.93;;;15.97;;
5702;SDS011;2876;51.738;10.050;2023-02-15T05:47:02;124.57;;;18.50;;
5702;SDS011;2876;51.738;10.050;2023-02-15T05:53:05;138.87;;;15.47;;
5702;SDS011;2876;51.738;10.050;2023-02-15T05:59:07;301.13;;;27.40;;
5702;SDS011;2876;51.738;10.050;2023-02-15T06:05:09;99.43;;;15.40;;
5702;SDS011;2876;51.738;10.050;2023-02-15T06:11:11;117.80;;;18.27;;
5702;SDS011;2876;51.738;10.050;2023-02-15T06:17:13;22.80;;;13.50;;
5702;SDS011;2876;51.738;10.050;2023-02-15T06:23:15;45.47;;;15.83;;
5702;SDS011;2876;51.738;10.050;2023-02-15T06:29:18;310.13;;;25.03;;
5702;SDS011;2876;51.738;10.050;2023-02-15T06:35:20;213.80;;;24.30;;
5702;SDS011;2876;51.738;10.050;2023-02-15T06:41:23;471.73;;;37.17;;
5702;SDS011;2876;51.738;10.050;2023-02-15T06:47:25;320.17;;;24.67;;
5702;SDS011;2876;51.738;10.050;2023-02-15T06:53:27;305.70;;;23.23;;
5702;SDS011;2876;51.738;10.050;2023-02-15T06:59:29;59.67;;;15.70;;
5702;SDS011;2876;51.738;10.050;2023-02-15T07:05:32;168.87;;;27.37;;
5702;SDS011;2876;51.738;10.050;2023-02-15T07:11:35;175.10;;;18.40;;
5702;SDS011;2876;51.738;10.050;2023-02-15T07:17:56;97.13;;;16.17;;
5702;SDS011;2876;51.738;10.050;2023-02-15T07:23:59;309.47;;;29.20;;
5702;SDS011;2876;51.738;10.050;2023-02-15T07:30:02;143.13;;;21.03;;
5702;SDS011;2876;51.738;10.050;2023-02-15T07:36:09;28.57;;;11.30;;
5702;SDS011;2876;51.738;10.050;2023-02-15T07:42:13;48.90;;;11.70;;
5702;SDS011;2876;51.738;10.050;2023-02-15T07:48:15;58.10;;;11.73;;
5702;SDS011;2876;51.738;10.050;2023-02-15T07:54:17;66.63;;;11.97;;
5702;SDS011;2876;51.738;10.050;2023-02-15T08:00:19;32.73;;;11.30;;
5702;SDS011;2876;51.738;10.050;2023-02-15T08:06:42;32.93;;;12.13;;
5702;SDS011;2876;51.738;10.050;2023-02-15T08:12:44;19.97;;;10.97;;
5702;SDS011;2876;51.738;10.050;2023-02-15T08:18:46;24.37;;;11.20;;
5702;SDS011;2876;51.738;10.050;2023-02-15T08:24:48;19.03;;;9.23;;
5702;SDS011;2876;51.738;10.050;2023-02-15T08:30:51;18.60;;;9.70;;
5702;SDS011;2876;51.738;10.050;2023-02-15T08:36:53;17.23;;;9.60;;
5702;SDS011;2876;51.738;10.050;2023-02-15T08:42:55;15.33;;;10.57;;
5702;SDS011;2876;51.738;10.050;2023-02-15T08:48:57;14.60;;;9.40;;
5702;SDS011;2876;51.738;10.050;2023-02-15T08:54:59;19.13;;;11.00;;
5702;SDS011;2876;51.738;10.050;2023-02-15T09:01:07;17.53;;;11.60;;
5702;SDS011;2876;51.738;10.050;2023-02-15T09:07:21;23.90;;;11.90;;
5702;SDS011;2876;51.738;10.050;2023-02-15T09:13:23;16.73;;;11.23;;
5702;SDS011;2876;51.738;10.050;2023-02-15T09:19:25;16.63;;;10.50;;
5702;SDS011;2876;51.738;10.050;2023-02-15T09:25:27;14.90;;;10.60;;
5702;SDS011;2876;51.738;10.050;2023-02-15T09:31:32;14.17;;;9.37;;
5702;SDS011;2876;51.738;10.050;2023-02-15T09:37:39;13.40;;;9.40;;
5702;SDS011;2876;51.738;10.050;2023-02-15T09:56:48;12.47;;;9.13;;
5702;SDS011;2876;51.738;10.050;2023-02-15T10:29:35;13.60;;;8.93;;
5702;SDS011;2876;51.738;10.050;2023-02-15T10:42:20;11.47;;;8.00;;
5702;SDS011;2876;51.738;10.050;2023-02-15T10:48:54;10.70;;;7.70;;
5702;SDS011;2876;51.738;10.050;2023-02-15T11:07:46;11.83;;;7.93;;
5702;SDS011;2876;51.738;10.050;2023-02-15T11:13:59;11.03;;;7.87;;
5702;SDS011;2876;51.738;10.050;2023-02-15T11:20:33;13.70;;;9.00;;
5702;SDS011;2876;51.738;10.050;2023-02-15T11:26:44;12.97;;;8.20;;
5702;SDS011;2876;51.738;10.050;2023-02-15T11:33:04;11.60;;;7.80;;
5702;SDS011;2876;51.738;10.050;2023-02-15T11:39:09;13.10;;;8.00;;
5702;SDS011;2876;51.738;10.050;2023-02-15T11:51:29;12.27;;;8.73;;
5702;SDS011;2876;51.738;10.050;2023-02-15T11:57:36;14.20;;;9.53;;
5702;SDS011;2876;51.738;10.050;2023-02-15T12:03:44;16.13;;;10.30;;
5702;SDS011;2876;51.738;10.050;2023-02-15T12:09:53;13.27;;;9.47;;
5702;SDS011;2876;51.738;10.050;2023-02-15T12:16:19;12.40;;;9.90;;
5702;SDS011;2876;51.738;10.050;2023-02-15T12:22:28;12.50;;;9.00;;
5702;SDS011;2876;51.738;10.050;2023-02-15T12:28:34;12.43;;;8.70;;
5702;SDS011;2876;51.738;10.050;2023-02-15T12:34:41;11.70;;;8.60;;
5702;SDS011;2876;51.738;10.050;2023-02-15T12:40:56;12.27;;;8.97;;
5702;SDS011;2876;51.738;10.050;2023-02-15T12:47:05;15.23;;;9.47;;
5702;SDS011;2876;51.738;10.050;2023-02-15T12:53:21;11.87;;;8.63;;
5702;SDS011;2876;51.738;10.050;2023-02-15T12:59:35;10.50;;;8.10;;
5702;SDS011;2876;51.738;10.050;2023-02-15T13:05:39;9.63;;;7.73;;
5702;SDS011;2876;51.738;10.050;2023-02-15T13:11:45;11.37;;;8.50;;
5702;SDS011;2876;51.738;10.050;2023-02-15T13:17:48;11.43;;;8.83;;
5702;SDS011;2876;51.738;10.050;2023-02-15T13:23:55;10.97;;;8.37;;
5702;SDS011;2876;51.738;10.050;2023-02-15T13:30:10;10.77;;;8.53;;
5702;SDS011;2876;51.738;10.050;2023-02-15T13:56:35;8.20;;;6.77;;
5702;SDS011;2876;51.738;10.050;2023-02-15T14:16:21;10.13;;;8.43;;
5702;SDS011;2876;51.738;10.050;2023-02-15T14:23:18;12.90;;;8.30;;
5702;SDS011;2876;51.738;10.050;2023-02-15T14:36:24;11.80;;;8.53;;
5702;SDS011;2876;51.738;10.050;2023-02-15T14:42:36;13.23;;;8.97;;
5702;SDS011;2876;51.738;10.050;2023-02-15T14:54:55;11.07;;;8.53;;
5702;SDS011;2876;51.738;10.050;2023-02-15T15:01:11;15.20;;;9.47;;
5702;SDS011;2876;51.738;10.050;2023-02-15T15:07:26;16.47;;;8.73;;
5702;SDS011;2876;51.738;10.050;2023-02-15T15:13:59;12.00;;;8.93;;
5702;SDS011;2876;51.738;10.050;2023-02-15T15:20:45;16.00;;;9.30;;
5702;SDS011;2876;51.738;10.050;2023-02-15T15:26:28;11.93;;;7.50;;
5702;SDS011;2876;51.738;10.050;2023-02-15T15:32:34;12.50;;;9.10;;
5702;SDS011;2876;51.738;10.050;2023-02-15T15:45:50;10.27;;;7.43;;
5702;SDS011;2876;51.738;10.050;2023-02-15T15:52:13;9.23;;;7.00;;
5702;SDS011;2876;51.738;10.050;2023-02-15T15:58:18;10.43;;;8.23;;
5702;SDS011;2876;51.738;10.050;2023-02-15T16:04:25;10.47;;;7.30;;
5702;SDS011;2876;51.738;10.050;2023-02-15T16:10:33;12.53;;;8.33;;
5702;SDS011;2876;51.738;10.050;2023-02-15T16:16:37;11.53;;;7.60;;
5702;SDS011;2876;51.738;10.050;2023-02-15T16:22:39;11.63;;;8.47;;
5702;SDS011;2876;51.738;10.050;2023-02-15T16:28:47;15.63;;;8.70;;
5702;SDS011;2876;51.738;10.050;2023-02-15T16:34:59;11.17;;;8.33;;
5702;SDS011;2876;51.738;10.050;2023-02-15T16:41:03;14.73;;;9.40;;
5702;SDS011;2876;51.738;10.050;2023-02-15T16:47:07;16.70;;;9.63;;
5702;SDS011;2876;51.738;10.050;2023-02-15T16:53:23;12.43;;;8.63;;
5702;SDS011;2876;51.738;10.050;2023-02-15T17:11:45;16.23;;;10.13;;
5702;SDS011;2876;51.738;10.050;2023-02-15T17:17:47;16.17;;;8.97;;
5702;SDS011;2876;51.738;10.050;2023-02-15T17:23:51;15.93;;;9.50;;
5702;SDS011;2876;51.738;10.050;2023-02-15T17:29:59;17.70;;;10.40;;
5702;SDS011;2876;51.738;10.050;2023-02-15T17:42:09;18.80;;;12.10;;
5702;SDS011;2876;51.738;10.050;2023-02-15T17:48:15;18.40;;;12.57;;
5702;SDS011;2876;51.738;10.050;2023-02-15T17:54:23;21.60;;;14.33;;
5702;SDS011;2876;51.738;10.050;2023-02-15T18:00:57;18.60;;;11.10;;
5702;SDS011;2876;51.738;10.050;2023-02-15T18:07:23;16.80;;;10.23;;
5702;SDS011;2876;51.738;10.050;2023-02-15T18:13:44;16.73;;;11.73;;
5702;SDS011;2876;51.738;10.050;2023-02-15T18:19:47;22.37;;;12.27;;
5702;SDS011;2876;51.738;10.050;2023-02-15T18:25:49;17.30;;;10.50;;
5702;SDS011;2876;51.738;10.050;2023-02-15T18:31:51;16.77;;;11.20;;
5702;SDS011;2876;51.738;10.050;2023-02-15T18:37:55;18.57;;;11.40;;
5702;SDS011;2876;51.738;10.050;2023-02-15T18:44:00;18.07;;;11.27;;
5702;SDS011;2876;51.738;10.050;2023-02-15T18:50:02;19.60;;;10.53;;
5702;SDS011;2876;51.738;10.050;2023-02-15T18:56:08;23.70;;;12.87;;
5702;SDS011;2876;51.738;10.050;2023-02-15T19:02:17;20.07;;;12.00;;
5702;SDS011;2876;51.738;10.050;2023-02-15T19:08:20;20.60;;;11.77;;
5702;SDS011;2876;51.738;10.050;2023-02-15T19:14:26;21.83;;;12.47;;
5702;SDS011;2876;51.738;10.050;2023-02-15T19:26:39;24.50;;;12.23;;
5702;SDS011;2876;51.738;10.050;2023-02-15T19:32:46;20.40;;;12.53;;
5702;SDS011;2876;51.738;10.050;2023-02-15T19:38:49;23.23;;;13.30;;
5702;SDS011;2876;51.738;10.050;2023-02-15T19:44:54;22.13;;;12.53;;
5702;SDS011;2876;51.738;10.050;2023-02-15T19:50:56;19.83;;;12.10;;
5702;SDS011;2876;51.738;10.050;2023-02-15T19:56:58;20.27;;;13.13;;
5702;SDS011;2876;51.738;10.050;2023-02-15T20:03:00;22.00;;;13.57;;
5702;SDS011;2876;51.738;10.050;2023-02-15T20:09:03;23.03;;;13.40;;
5702;SDS011;2876;51.738;10.050;2023-02-15T20:15:19;22.33;;;13.30;;
5702;SDS011;2876;51.738;10.050;2023-02-15T20:21:24;22.53;;;14.03;;
5702;SDS011;2876;51.738;10.050;2023-02-15T20:27:26;30.80;;;14.83;;
5702;SDS011;2876;51.738;10.050;2023-02-15T20:33:29;28.33;;;15.43;;
5702;SDS011;2876;51.738;10.050;2023-02-15T20:39:31;24.80;;;13.57;;
5702;SDS011;2876;51.738;10.050;2023-02-15T20:45:34;23.37;;;13.10;;
5702;SDS011;2876;51.738;10.050;2023-02-15T20:51:37;23.60;;;13.40;;
5702;SDS011;2876;51.738;10.050;2023-02-15T20:57:40;23.97;;;13.90;;
5702;SDS011;2876;51.738;10.050;2023-02-15T21:03:43;28.50;;;15.50;;
5702;SDS011;2876;51.738;10.050;2023-02-15T21:09:45;21.40;;;13.43;;
5702;SDS011;2876;51.738;10.050;2023-02-15T21:15:48;25.93;;;14.40;;
5702;SDS011;2876;51.738;10.050;2023-02-15T21:21:52;22.00;;;13.70;;
5702;SDS011;2876;51.738;10.050;2023-02-15T21:27:54;25.67;;;15.37;;
5702;SDS011;2876;51.738;10.050;2023-02-15T21:33:56;28.23;;;15.00;;
5702;SDS011;2876;51.738;10.050;2023-02-15T21:39:58;30.93;;;15.80;;
5702;SDS011;2876;51.738;10.050;2023-02-15T21:46:04;21.20;;;13.17;;
5702;SDS011;2876;51.738;10.050;2023-02-15T21:52:37;23.70;;;14.67;;
5702;SDS011;2876;51.738;10.050;2023-02-15T21:58:39;34.20;;;15.53;;
5702;SDS011;2876;51.738;10.050;2023-02-15T22:04:42;23.57;;;14.70;;
5702;SDS011;2876;51.738;10.050;2023-02-15T22:10:43;30.43;;;17.73;;
5702;SDS011;2876;51.738;10.050;2023-02-15T22:16:46;36.07;;;18.00;;
5702;SDS011;2876;51.738;10.050;2023-02-15T22:22:48;34.10;;;17.93;;
5702;SDS011;2876;51.738;10.050;2023-02-15T22:28:51;31.80;;;18.37;;
5702;SDS011;2876;51.738;10.050;2023-02-15T22:34:53;33.13;;;17.57;;
5702;SDS011;2876;51.738;10.050;2023-02-15T22:40:56;40.03;;;19.40;;
5702;SDS011;2876;51.738;10.050;2023-02-15T22:47:07;29.90;;;17.33;;
5702;SDS011;2876;51.738;10.050;2023-02-15T22:53:15;34.13;;;18.63;;
5702;SDS011;2876;51.738;10.050;2023-02-15T22:59:22;37.20;;;18.90;;
5702;SDS011;2876;51.738;10.050;2023-02-15T23:05:29;38.13;;;19.47;;
5702;SDS011;2876;51.738;10.050;2023-02-15T23:11:31;35.13;;;17.80;;
5702;SDS011;2876;51.738;10.050;2023-02-15T23:17:33;31.90;;;18.20;;
5702;SDS011;2876;51.738;10.050;2023-02-15T23:23:37;31.93;;;18.43;;
5702;SDS011;2876;51.738;10.050;2023-02-15T23:29:41;39.23;;;20.13;;
5702;SDS011;2876;51.738;10.050;2023-02-15T23:35:43;39.77;;;20.03;;
5702;SDS011;2876;51.738;10.050;2023-02-15T23:41:45;46.37;;;20.07;;
5702;SDS011;2876;51.738;10.050;2023-02-15T23:47:47;28.37;;;17.30;;
5702;SDS011;2876;51.738;10.050;2023-02-15T23:54:08;38.37;;;19.03;;
